sensor_id;sensor_type;location;lat;lon;timestamp;P1;durP1;ratioP1;P2;durP2;ratioP2
8665;SDS011;4370;48.916;8.380;2023-01-28T00:02:16;6.77;;;3.90;;
8665;SDS011;4370;48.916;8.380;2023-01-28T00:04:42;5.40;;;3.67;;
8665;SDS011;4370;48.916;8.380;2023-01-28T00:07:08;5.77;;;3.60;;
8665;SDS011;4370;48.916;8.380;2023-01-28T00:09:34;4.80;;;3.73;;
8665;SDS011;4370;48.916;8.380;2023-01-28T00:12:00;4.03;;;3.60;;
8665;SDS011;4370;48.916;8.380;2023-01-28T00:14:26;4.27;;;3.27;;
8665;SDS011;4370;48.916;8.380;2023-01-28T00:16:52;4.63;;;3.60;;
8665;SDS011;4370;48.916;8.380;2023-01-28T00:19:18;4.60;;;3.70;;
8665;SDS011;4370;48.916;8.380;2023-01-28T00:21:44;4.07;;;3.27;;
8665;SDS011;4370;48.916;8.380;2023-01-28T00:24:10;4.30;;;3.20;;
8665;SDS011;4370;48.916;8.380;2023-01-28T00:26:36;3.77;;;3.17;;
8665;SDS011;4370;48.916;8.380;2023-01-28T00:29:02;4.77;;;3.50;;
8665;SDS011;4370;48.916;8.380;2023-01-28T00:31:28;5.43;;;3.67;;
8665;SDS011;4370;48.916;8.380;2023-01-28T00:33:54;4.83;;;3.43;;
8665;SDS011;4370;48.916;8.380;2023-01-28T00:36:21;4.57;;;3.20;;
8665;SDS011;4370;48.916;8.380;2023-01-28T00:38:54;4.50;;;3.53;;
8665;SDS011;4370;48.916;8.380;2023-01-28T00:41:22;3.40;;;2.90;;
8665;SDS011;4370;48.916;8.380;2023-01-28T00:43:49;4.70;;;3.33;;
8665;SDS011;4370;48.916;8.380;2023-01-28T00:46:15;3.53;;;3.20;;
8665;SDS011;4370;48.916;8.380;2023-01-28T00:48:42;3.73;;;3.10;;
8665;SDS011;4370;48.916;8.380;2023-01-28T00:51:09;3.57;;;3.07;;
8665;SDS011;4370;48.916;8.380;2023-01-28T00:53:35;4.30;;;2.63;;
8665;SDS011;4370;48.916;8.380;2023-01-28T00:56:02;3.43;;;2.77;;
8665;SDS011;4370;48.916;8.380;2023-01-28T00:58:29;4.47;;;3.07;;
8665;SDS011;4370;48.916;8.380;2023-01-28T01:00:55;3.60;;;3.00;;
8665;SDS011;4370;48.916;8.380;2023-01-28T01:03:21;4.20;;;3.30;;
8665;SDS011;4370;48.916;8.380;2023-01-28T01:05:47;3.50;;;2.83;;
8665;SDS011;4370;48.916;8.380;2023-01-28T01:08:13;3.53;;;2.80;;
8665;SDS011;4370;48.916;8.380;2023-01-28T01:10:39;4.37;;;3.33;;
8665;SDS011;4370;48.916;8.380;2023-01-28T01:13:05;4.17;;;3.10;;
8665;SDS011;4370;48.916;8.380;2023-01-28T01:15:31;3.83;;;3.00;;
8665;SDS011;4370;48.916;8.380;2023-01-28T01:17:57;3.83;;;3.10;;
8665;SDS011;4370;48.916;8.380;2023-01-28T01:20:24;4.03;;;2.90;;
8665;SDS011;4370;48.916;8.380;2023-01-28T01:22:51;3.73;;;2.70;;
8665;SDS011;4370;48.916;8.380;2023-01-28T01:25:17;4.00;;;3.13;;
8665;SDS011;4370;48.916;8.380;2023-01-28T01:27:43;4.10;;;3.10;;
8665;SDS011;4370;48.916;8.380;2023-01-28T01:30:11;4.10;;;3.03;;
8665;SDS011;4370;48.916;8.380;2023-01-28T01:32:37;4.07;;;3.00;;
8665;SDS011;4370;48.916;8.380;2023-01-28T01:35:04;3.33;;;3.00;;
8665;SDS011;4370;48.916;8.380;2023-01-28T01:37:33;4.13;;;3.03;;
8665;SDS011;4370;48.916;8.380;2023-01-28T01:40:00;3.60;;;2.67;;
8665;SDS011;4370;48.916;8.380;2023-01-28T01:42:27;3.47;;;3.00;;
8665;SDS011;4370;48.916;8.380;2023-01-28T01:45:05;4.13;;;3.10;;
8665;SDS011;4370;48.916;8.380;2023-01-28T01:50:28;4.03;;;2.87;;
8665;SDS011;4370;48.916;8.380;2023-01-28T01:52:56;3.23;;;2.87;;
8665;SDS011;4370;48.916;8.380;2023-01-28T01:55:24;3.50;;;2.80;;
8665;SDS011;4370;48.916;8.380;2023-01-28T01:57:51;3.43;;;2.70;;
8665;SDS011;4370;48.916;8.380;2023-01-28T02:00:18;3.73;;;3.10;;
8665;SDS011;4370;48.916;8.380;2023-01-28T02:02:47;3.93;;;3.10;;
8665;SDS011;4370;48.916;8.380;2023-01-28T02:05:14;3.50;;;2.80;;
8665;SDS011;4370;48.916;8.380;2023-01-28T02:07:41;4.50;;;3.10;;
8665;SDS011;4370;48.916;8.380;2023-01-28T02:10:08;3.97;;;2.90;;
8665;SDS011;4370;48.916;8.380;2023-01-28T02:12:44;4.10;;;2.93;;
8665;SDS011;4370;48.916;8.380;2023-01-28T02:15:15;3.40;;;2.80;;
8665;SDS011;4370;48.916;8.380;2023-01-28T02:17:43;3.93;;;2.80;;
8665;SDS011;4370;48.916;8.380;2023-01-28T02:20:10;3.77;;;2.87;;
8665;SDS011;4370;48.916;8.380;2023-01-28T02:25:22;3.43;;;2.90;;
8665;SDS011;4370;48.916;8.380;2023-01-28T02:30:54;3.47;;;2.93;;
8665;SDS011;4370;48.916;8.380;2023-01-28T02:33:29;3.90;;;3.30;;
8665;SDS011;4370;48.916;8.380;2023-01-28T02:36:04;4.03;;;3.10;;
8665;SDS011;4370;48.916;8.380;2023-01-28T02:38:42;3.23;;;2.67;;
8665;SDS011;4370;48.916;8.380;2023-01-28T02:41:17;3.27;;;2.70;;
8665;SDS011;4370;48.916;8.380;2023-01-28T02:43:45;3.13;;;2.70;;
8665;SDS011;4370;48.916;8.380;2023-01-28T02:48:56;3.50;;;2.90;;
8665;SDS011;4370;48.916;8.380;2023-01-28T02:56:54;3.93;;;2.80;;
8665;SDS011;4370;48.916;8.380;2023-01-28T02:59:41;4.53;;;3.20;;
8665;SDS011;4370;48.916;8.380;2023-01-28T03:07:20;3.33;;;2.90;;
8665;SDS011;4370;48.916;8.380;2023-01-28T03:09:47;3.90;;;3.20;;
8665;SDS011;4370;48.916;8.380;2023-01-28T03:12:16;3.50;;;3.20;;
8665;SDS011;4370;48.916;8.380;2023-01-28T03:15:16;3.90;;;3.20;;
8665;SDS011;4370;48.916;8.380;2023-01-28T03:18:06;5.03;;;3.40;;
8665;SDS011;4370;48.916;8.380;2023-01-28T03:21:11;4.17;;;3.50;;
8665;SDS011;4370;48.916;8.380;2023-01-28T03:24:11;4.83;;;3.20;;
8665;SDS011;4370;48.916;8.380;2023-01-28T03:27:09;5.37;;;3.23;;
8665;SDS011;4370;48.916;8.380;2023-01-28T03:29:56;4.53;;;3.27;;
8665;SDS011;4370;48.916;8.380;2023-01-28T03:32:42;4.60;;;3.67;;
8665;SDS011;4370;48.916;8.380;2023-01-28T03:35:28;3.70;;;3.07;;
8665;SDS011;4370;48.916;8.380;2023-01-28T03:38:14;4.50;;;3.30;;
8665;SDS011;4370;48.916;8.380;2023-01-28T03:40:56;4.90;;;2.80;;
8665;SDS011;4370;48.916;8.380;2023-01-28T03:43:24;3.73;;;2.70;;
8665;SDS011;4370;48.916;8.380;2023-01-28T03:45:50;3.53;;;2.80;;
8665;SDS011;4370;48.916;8.380;2023-01-28T03:48:19;3.87;;;2.97;;
8665;SDS011;4370;48.916;8.380;2023-01-28T03:50:45;4.23;;;3.30;;
8665;SDS011;4370;48.916;8.380;2023-01-28T03:53:12;3.60;;;3.00;;
8665;SDS011;4370;48.916;8.380;2023-01-28T03:55:39;3.03;;;2.70;;
8665;SDS011;4370;48.916;8.380;2023-01-28T03:58:05;3.40;;;2.90;;
8665;SDS011;4370;48.916;8.380;2023-01-28T04:00:31;3.57;;;2.93;;
8665;SDS011;4370;48.916;8.380;2023-01-28T04:02:57;3.70;;;3.10;;
8665;SDS011;4370;48.916;8.380;2023-01-28T04:05:23;4.57;;;3.33;;
8665;SDS011;4370;48.916;8.380;2023-01-28T04:07:53;4.47;;;3.60;;
8665;SDS011;4370;48.916;8.380;2023-01-28T04:10:19;5.23;;;3.63;;
8665;SDS011;4370;48.916;8.380;2023-01-28T04:12:45;4.43;;;3.03;;
8665;SDS011;4370;48.916;8.380;2023-01-28T04:15:13;5.43;;;3.03;;
8665;SDS011;4370;48.916;8.380;2023-01-28T04:17:42;4.20;;;3.40;;
8665;SDS011;4370;48.916;8.380;2023-01-28T04:20:12;3.73;;;3.20;;
8665;SDS011;4370;48.916;8.380;2023-01-28T04:22:38;4.60;;;3.40;;
8665;SDS011;4370;48.916;8.380;2023-01-28T04:25:04;4.23;;;3.47;;
8665;SDS011;4370;48.916;8.380;2023-01-28T04:27:30;4.83;;;3.70;;
8665;SDS011;4370;48.916;8.380;2023-01-28T04:29:56;4.43;;;3.20;;
8665;SDS011;4370;48.916;8.380;2023-01-28T04:32:22;4.43;;;3.37;;
8665;SDS011;4370;48.916;8.380;2023-01-28T04:34:48;5.13;;;3.50;;
8665;SDS011;4370;48.916;8.380;2023-01-28T04:37:14;4.77;;;3.73;;
8665;SDS011;4370;48.916;8.380;2023-01-28T04:39:40;4.87;;;3.80;;
8665;SDS011;4370;48.916;8.380;2023-01-28T04:42:05;4.77;;;3.80;;
8665;SDS011;4370;48.916;8.380;2023-01-28T04:44:31;4.40;;;3.43;;
8665;SDS011;4370;48.916;8.380;2023-01-28T04:46:57;5.90;;;3.77;;
8665;SDS011;4370;48.916;8.380;2023-01-28T04:49:23;4.43;;;3.70;;
8665;SDS011;4370;48.916;8.380;2023-01-28T04:51:49;4.87;;;4.00;;
8665;SDS011;4370;48.916;8.380;2023-01-28T04:54:16;4.53;;;3.40;;
8665;SDS011;4370;48.916;8.380;2023-01-28T04:56:42;3.97;;;3.20;;
8665;SDS011;4370;48.916;8.380;2023-01-28T04:59:08;5.63;;;3.93;;
8665;SDS011;4370;48.916;8.380;2023-01-28T05:01:33;4.77;;;3.27;;
8665;SDS011;4370;48.916;8.380;2023-01-28T05:03:59;4.20;;;3.43;;
8665;SDS011;4370;48.916;8.380;2023-01-28T05:06:29;4.53;;;3.70;;
8665;SDS011;4370;48.916;8.380;2023-01-28T05:08:55;4.63;;;3.27;;
8665;SDS011;4370;48.916;8.380;2023-01-28T05:11:22;5.00;;;3.43;;
8665;SDS011;4370;48.916;8.380;2023-01-28T05:13:47;4.90;;;3.67;;
8665;SDS011;4370;48.916;8.380;2023-01-28T05:16:13;4.80;;;3.77;;
8665;SDS011;4370;48.916;8.380;2023-01-28T05:18:40;4.00;;;3.40;;
8665;SDS011;4370;48.916;8.380;2023-01-28T05:21:06;4.27;;;3.23;;
8665;SDS011;4370;48.916;8.380;2023-01-28T05:23:32;3.93;;;3.13;;
8665;SDS011;4370;48.916;8.380;2023-01-28T05:25:58;5.30;;;3.63;;
8665;SDS011;4370;48.916;8.380;2023-01-28T05:28:24;4.20;;;3.67;;
8665;SDS011;4370;48.916;8.380;2023-01-28T05:30:50;5.73;;;3.80;;
8665;SDS011;4370;48.916;8.380;2023-01-28T05:33:16;6.07;;;4.33;;
8665;SDS011;4370;48.916;8.380;2023-01-28T05:35:42;4.20;;;3.70;;
8665;SDS011;4370;48.916;8.380;2023-01-28T05:38:08;5.47;;;3.80;;
8665;SDS011;4370;48.916;8.380;2023-01-28T05:40:34;7.03;;;4.77;;
8665;SDS011;4370;48.916;8.380;2023-01-28T05:42:59;4.37;;;3.90;;
8665;SDS011;4370;48.916;8.380;2023-01-28T05:45:25;5.50;;;4.03;;
8665;SDS011;4370;48.916;8.380;2023-01-28T05:47:51;6.27;;;4.20;;
8665;SDS011;4370;48.916;8.380;2023-01-28T05:50:17;5.50;;;4.43;;
8665;SDS011;4370;48.916;8.380;2023-01-28T05:52:43;5.60;;;4.00;;
8665;SDS011;4370;48.916;8.380;2023-01-28T05:55:09;5.47;;;4.60;;
8665;SDS011;4370;48.916;8.380;2023-01-28T05:57:35;4.70;;;4.00;;
8665;SDS011;4370;48.916;8.380;2023-01-28T06:00:02;5.37;;;4.27;;
8665;SDS011;4370;48.916;8.380;2023-01-28T06:02:29;4.43;;;4.03;;
8665;SDS011;4370;48.916;8.380;2023-01-28T06:04:55;4.67;;;3.90;;
8665;SDS011;4370;48.916;8.380;2023-01-28T06:07:21;4.80;;;3.80;;
8665;SDS011;4370;48.916;8.380;2023-01-28T06:09:48;5.03;;;4.17;;
8665;SDS011;4370;48.916;8.380;2023-01-28T06:12:13;5.00;;;4.10;;
8665;SDS011;4370;48.916;8.380;2023-01-28T06:14:40;4.90;;;4.10;;
8665;SDS011;4370;48.916;8.380;2023-01-28T06:17:06;6.30;;;4.63;;
8665;SDS011;4370;48.916;8.380;2023-01-28T06:19:32;5.17;;;4.63;;
8665;SDS011;4370;48.916;8.380;2023-01-28T06:21:58;6.17;;;4.87;;
8665;SDS011;4370;48.916;8.380;2023-01-28T06:24:24;7.57;;;4.60;;
8665;SDS011;4370;48.916;8.380;2023-01-28T06:26:49;5.80;;;4.80;;
8665;SDS011;4370;48.916;8.380;2023-01-28T06:29:15;5.20;;;4.43;;
8665;SDS011;4370;48.916;8.380;2023-01-28T06:31:41;5.90;;;4.63;;
8665;SDS011;4370;48.916;8.380;2023-01-28T06:34:08;6.43;;;4.87;;
8665;SDS011;4370;48.916;8.380;2023-01-28T06:36:34;5.07;;;4.40;;
8665;SDS011;4370;48.916;8.380;2023-01-28T06:39:02;5.00;;;4.10;;
8665;SDS011;4370;48.916;8.380;2023-01-28T06:41:28;5.73;;;4.60;;
8665;SDS011;4370;48.916;8.380;2023-01-28T06:43:53;5.80;;;4.70;;
8665;SDS011;4370;48.916;8.380;2023-01-28T06:46:19;5.23;;;4.60;;
8665;SDS011;4370;48.916;8.380;2023-01-28T06:48:45;6.90;;;4.70;;
8665;SDS011;4370;48.916;8.380;2023-01-28T06:51:11;5.43;;;4.60;;
8665;SDS011;4370;48.916;8.380;2023-01-28T06:53:36;5.57;;;4.77;;
8665;SDS011;4370;48.916;8.380;2023-01-28T06:56:02;5.60;;;4.63;;
8665;SDS011;4370;48.916;8.380;2023-01-28T06:58:29;5.43;;;4.67;;
8665;SDS011;4370;48.916;8.380;2023-01-28T07:00:54;6.23;;;4.70;;
8665;SDS011;4370;48.916;8.380;2023-01-28T07:03:20;6.37;;;4.47;;
8665;SDS011;4370;48.916;8.380;2023-01-28T07:05:46;5.97;;;4.67;;
8665;SDS011;4370;48.916;8.380;2023-01-28T07:08:12;6.20;;;5.03;;
8665;SDS011;4370;48.916;8.380;2023-01-28T07:10:38;5.90;;;5.20;;
8665;SDS011;4370;48.916;8.380;2023-01-28T07:13:04;6.50;;;5.33;;
8665;SDS011;4370;48.916;8.380;2023-01-28T07:15:30;5.50;;;4.80;;
8665;SDS011;4370;48.916;8.380;2023-01-28T07:17:56;6.20;;;5.17;;
8665;SDS011;4370;48.916;8.380;2023-01-28T07:20:22;6.37;;;5.40;;
8665;SDS011;4370;48.916;8.380;2023-01-28T07:22:48;6.13;;;5.40;;
8665;SDS011;4370;48.916;8.380;2023-01-28T07:25:14;7.87;;;5.97;;
8665;SDS011;4370;48.916;8.380;2023-01-28T07:27:46;6.90;;;5.63;;
8665;SDS011;4370;48.916;8.380;2023-01-28T07:30:13;6.93;;;5.47;;
8665;SDS011;4370;48.916;8.380;2023-01-28T07:32:39;7.67;;;5.70;;
8665;SDS011;4370;48.916;8.380;2023-01-28T07:35:04;7.20;;;5.80;;
8665;SDS011;4370;48.916;8.380;2023-01-28T07:37:30;7.90;;;5.60;;
8665;SDS011;4370;48.916;8.380;2023-01-28T07:39:56;7.63;;;5.90;;
8665;SDS011;4370;48.916;8.380;2023-01-28T07:42:22;7.23;;;5.60;;
8665;SDS011;4370;48.916;8.380;2023-01-28T07:44:48;6.60;;;5.27;;
8665;SDS011;4370;48.916;8.380;2023-01-28T07:47:14;7.30;;;5.73;;
8665;SDS011;4370;48.916;8.380;2023-01-28T07:49:40;7.93;;;6.17;;
8665;SDS011;4370;48.916;8.380;2023-01-28T07:52:06;8.37;;;6.20;;
8665;SDS011;4370;48.916;8.380;2023-01-28T07:54:33;9.17;;;6.83;;
8665;SDS011;4370;48.916;8.380;2023-01-28T07:56:59;9.57;;;6.20;;
8665;SDS011;4370;48.916;8.380;2023-01-28T07:59:25;8.73;;;6.57;;
8665;SDS011;4370;48.916;8.380;2023-01-28T08:01:51;9.93;;;7.33;;
8665;SDS011;4370;48.916;8.380;2023-01-28T08:04:20;9.17;;;6.63;;
8665;SDS011;4370;48.916;8.380;2023-01-28T08:06:46;10.93;;;6.60;;
8665;SDS011;4370;48.916;8.380;2023-01-28T08:09:12;9.73;;;7.47;;
8665;SDS011;4370;48.916;8.380;2023-01-28T08:11:37;9.80;;;7.07;;
8665;SDS011;4370;48.916;8.380;2023-01-28T08:14:04;9.60;;;7.20;;
8665;SDS011;4370;48.916;8.380;2023-01-28T08:16:30;9.20;;;7.07;;
8665;SDS011;4370;48.916;8.380;2023-01-28T08:18:56;9.80;;;7.07;;
8665;SDS011;4370;48.916;8.380;2023-01-28T08:21:22;9.80;;;7.47;;
8665;SDS011;4370;48.916;8.380;2023-01-28T08:23:48;11.43;;;7.80;;
8665;SDS011;4370;48.916;8.380;2023-01-28T08:26:14;9.87;;;7.37;;
8665;SDS011;4370;48.916;8.380;2023-01-28T08:28:39;10.87;;;7.90;;
8665;SDS011;4370;48.916;8.380;2023-01-28T08:31:05;9.23;;;7.27;;
8665;SDS011;4370;48.916;8.380;2023-01-28T08:33:31;11.47;;;7.97;;
8665;SDS011;4370;48.916;8.380;2023-01-28T08:35:57;14.77;;;8.07;;
8665;SDS011;4370;48.916;8.380;2023-01-28T08:38:22;10.93;;;7.97;;
8665;SDS011;4370;48.916;8.380;2023-01-28T08:40:49;11.63;;;8.07;;
8665;SDS011;4370;48.916;8.380;2023-01-28T08:43:15;10.33;;;8.13;;
8665;SDS011;4370;48.916;8.380;2023-01-28T08:45:41;9.17;;;6.97;;
8665;SDS011;4370;48.916;8.380;2023-01-28T08:48:08;12.30;;;9.23;;
8665;SDS011;4370;48.916;8.380;2023-01-28T08:50:38;11.27;;;8.03;;
8665;SDS011;4370;48.916;8.380;2023-01-28T08:53:05;14.20;;;10.23;;
8665;SDS011;4370;48.916;8.380;2023-01-28T08:55:34;12.87;;;9.13;;
8665;SDS011;4370;48.916;8.380;2023-01-28T08:58:07;11.40;;;8.40;;
8665;SDS011;4370;48.916;8.380;2023-01-28T09:00:36;13.53;;;9.20;;
8665;SDS011;4370;48.916;8.380;2023-01-28T09:03:02;11.63;;;7.77;;
8665;SDS011;4370;48.916;8.380;2023-01-28T09:05:28;10.87;;;7.93;;
8665;SDS011;4370;48.916;8.380;2023-01-28T09:08:01;13.40;;;9.00;;
8665;SDS011;4370;48.916;8.380;2023-01-28T09:10:27;13.03;;;8.60;;
8665;SDS011;4370;48.916;8.380;2023-01-28T09:12:53;12.10;;;7.87;;
8665;SDS011;4370;48.916;8.380;2023-01-28T09:15:19;11.20;;;8.27;;
8665;SDS011;4370;48.916;8.380;2023-01-28T09:17:44;12.87;;;8.50;;
8665;SDS011;4370;48.916;8.380;2023-01-28T09:20:10;11.80;;;8.80;;
8665;SDS011;4370;48.916;8.380;2023-01-28T09:22:37;12.03;;;7.93;;
8665;SDS011;4370;48.916;8.380;2023-01-28T09:25:03;10.97;;;7.37;;
8665;SDS011;4370;48.916;8.380;2023-01-28T09:27:29;10.33;;;7.60;;
8665;SDS011;4370;48.916;8.380;2023-01-28T09:29:55;11.73;;;7.63;;
8665;SDS011;4370;48.916;8.380;2023-01-28T09:32:20;10.37;;;7.70;;
8665;SDS011;4370;48.916;8.380;2023-01-28T09:34:48;11.77;;;7.93;;
8665;SDS011;4370;48.916;8.380;2023-01-28T09:37:14;10.57;;;7.90;;
8665;SDS011;4370;48.916;8.380;2023-01-28T09:39:42;10.83;;;7.87;;
8665;SDS011;4370;48.916;8.380;2023-01-28T09:42:18;10.27;;;7.63;;
8665;SDS011;4370;48.916;8.380;2023-01-28T09:47:51;9.70;;;7.03;;
8665;SDS011;4370;48.916;8.380;2023-01-28T09:50:38;10.90;;;7.33;;
8665;SDS011;4370;48.916;8.380;2023-01-28T09:53:20;9.67;;;7.27;;
8665;SDS011;4370;48.916;8.380;2023-01-28T09:55:48;11.90;;;7.10;;
8665;SDS011;4370;48.916;8.380;2023-01-28T09:58:15;10.20;;;6.90;;
8665;SDS011;4370;48.916;8.380;2023-01-28T10:00:58;9.67;;;7.07;;
8665;SDS011;4370;48.916;8.380;2023-01-28T10:03:38;11.10;;;7.33;;
8665;SDS011;4370;48.916;8.380;2023-01-28T10:11:25;9.93;;;6.83;;
8665;SDS011;4370;48.916;8.380;2023-01-28T10:14:00;8.60;;;6.40;;
8665;SDS011;4370;48.916;8.380;2023-01-28T10:16:45;8.83;;;6.67;;
8665;SDS011;4370;48.916;8.380;2023-01-28T10:19:18;10.80;;;6.77;;
8665;SDS011;4370;48.916;8.380;2023-01-28T10:22:00;11.47;;;7.13;;
8665;SDS011;4370;48.916;8.380;2023-01-28T10:26:59;9.03;;;6.90;;
8665;SDS011;4370;48.916;8.380;2023-01-28T10:29:31;8.60;;;6.53;;
8665;SDS011;4370;48.916;8.380;2023-01-28T10:32:03;9.60;;;7.13;;
8665;SDS011;4370;48.916;8.380;2023-01-28T10:34:30;9.27;;;7.00;;
8665;SDS011;4370;48.916;8.380;2023-01-28T10:36:56;9.37;;;6.90;;
8665;SDS011;4370;48.916;8.380;2023-01-28T10:39:22;9.20;;;6.73;;
8665;SDS011;4370;48.916;8.380;2023-01-28T10:41:50;9.57;;;6.93;;
8665;SDS011;4370;48.916;8.380;2023-01-28T10:44:17;11.07;;;7.03;;
8665;SDS011;4370;48.916;8.380;2023-01-28T10:46:46;9.60;;;7.20;;
8665;SDS011;4370;48.916;8.380;2023-01-28T10:49:14;9.30;;;6.87;;
8665;SDS011;4370;48.916;8.380;2023-01-28T10:51:45;9.67;;;7.00;;
8665;SDS011;4370;48.916;8.380;2023-01-28T10:54:21;8.77;;;6.67;;
8665;SDS011;4370;48.916;8.380;2023-01-28T10:57:01;8.53;;;6.07;;
8665;SDS011;4370;48.916;8.380;2023-01-28T10:59:32;8.30;;;6.63;;
8665;SDS011;4370;48.916;8.380;2023-01-28T11:02:01;7.60;;;5.97;;
8665;SDS011;4370;48.916;8.380;2023-01-28T11:04:43;10.37;;;6.73;;
8665;SDS011;4370;48.916;8.380;2023-01-28T11:07:16;8.57;;;6.37;;
8665;SDS011;4370;48.916;8.380;2023-01-28T11:09:46;8.77;;;6.20;;
8665;SDS011;4370;48.916;8.380;2023-01-28T11:12:18;9.07;;;6.47;;
8665;SDS011;4370;48.916;8.380;2023-01-28T11:14:51;10.20;;;6.93;;
8665;SDS011;4370;48.916;8.380;2023-01-28T11:17:18;9.33;;;6.23;;
8665;SDS011;4370;48.916;8.380;2023-01-28T11:19:45;9.53;;;6.73;;
8665;SDS011;4370;48.916;8.380;2023-01-28T11:24:56;9.00;;;6.70;;
8665;SDS011;4370;48.916;8.380;2023-01-28T11:27:25;8.43;;;6.47;;
8665;SDS011;4370;48.916;8.380;2023-01-28T11:29:55;9.13;;;6.83;;
8665;SDS011;4370;48.916;8.380;2023-01-28T11:32:24;9.10;;;6.13;;
8665;SDS011;4370;48.916;8.380;2023-01-28T11:34:51;10.17;;;7.00;;
8665;SDS011;4370;48.916;8.380;2023-01-28T11:37:19;9.00;;;6.63;;
8665;SDS011;4370;48.916;8.380;2023-01-28T11:39:46;9.70;;;7.23;;
8665;SDS011;4370;48.916;8.380;2023-01-28T11:42:15;10.77;;;7.10;;
8665;SDS011;4370;48.916;8.380;2023-01-28T11:44:41;8.57;;;6.43;;
8665;SDS011;4370;48.916;8.380;2023-01-28T11:49:37;11.37;;;7.30;;
8665;SDS011;4370;48.916;8.380;2023-01-28T11:52:08;9.63;;;7.03;;
8665;SDS011;4370;48.916;8.380;2023-01-28T11:54:55;9.83;;;7.73;;
8665;SDS011;4370;48.916;8.380;2023-01-28T11:59:55;9.90;;;7.30;;
8665;SDS011;4370;48.916;8.380;2023-01-28T12:02:48;9.43;;;7.10;;
8665;SDS011;4370;48.916;8.380;2023-01-28T12:05:47;9.50;;;6.63;;
8665;SDS011;4370;48.916;8.380;2023-01-28T12:08:20;10.77;;;7.60;;
8665;SDS011;4370;48.916;8.380;2023-01-28T12:13:50;8.63;;;6.73;;
8665;SDS011;4370;48.916;8.380;2023-01-28T12:16:30;10.77;;;7.50;;
8665;SDS011;4370;48.916;8.380;2023-01-28T12:19:03;11.70;;;8.03;;
8665;SDS011;4370;48.916;8.380;2023-01-28T12:24:34;11.70;;;7.20;;
8665;SDS011;4370;48.916;8.380;2023-01-28T12:32:47;9.40;;;6.63;;
8665;SDS011;4370;48.916;8.380;2023-01-28T12:35:34;11.13;;;7.67;;
8665;SDS011;4370;48.916;8.380;2023-01-28T12:41:18;9.23;;;6.70;;
8665;SDS011;4370;48.916;8.380;2023-01-28T12:43:52;10.87;;;6.70;;
8665;SDS011;4370;48.916;8.380;2023-01-28T12:49:02;9.13;;;6.60;;
8665;SDS011;4370;48.916;8.380;2023-01-28T12:51:48;6.50;;;5.60;;
8665;SDS011;4370;48.916;8.380;2023-01-28T12:54:20;8.30;;;6.37;;
8665;SDS011;4370;48.916;8.380;2023-01-28T12:56:57;7.43;;;6.00;;
8665;SDS011;4370;48.916;8.380;2023-01-28T12:59:28;7.27;;;6.00;;
8665;SDS011;4370;48.916;8.380;2023-01-28T13:01:56;7.40;;;5.80;;
8665;SDS011;4370;48.916;8.380;2023-01-28T13:10:12;7.20;;;5.50;;
8665;SDS011;4370;48.916;8.380;2023-01-28T13:12:44;6.57;;;4.90;;
8665;SDS011;4370;48.916;8.380;2023-01-28T13:15:12;7.23;;;5.57;;
8665;SDS011;4370;48.916;8.380;2023-01-28T13:17:51;8.10;;;5.37;;
8665;SDS011;4370;48.916;8.380;2023-01-28T13:25:56;6.50;;;4.70;;
8665;SDS011;4370;48.916;8.380;2023-01-28T13:28:33;7.10;;;5.17;;
8665;SDS011;4370;48.916;8.380;2023-01-28T13:31:08;6.47;;;4.90;;
8665;SDS011;4370;48.916;8.380;2023-01-28T13:33:42;6.53;;;4.97;;
8665;SDS011;4370;48.916;8.380;2023-01-28T13:38:37;7.93;;;5.17;;
8665;SDS011;4370;48.916;8.380;2023-01-28T13:41:03;7.00;;;5.27;;
8665;SDS011;4370;48.916;8.380;2023-01-28T13:46:02;6.87;;;5.23;;
8665;SDS011;4370;48.916;8.380;2023-01-28T13:51:03;6.07;;;4.70;;
8665;SDS011;4370;48.916;8.380;2023-01-28T13:53:44;7.37;;;4.83;;
8665;SDS011;4370;48.916;8.380;2023-01-28T13:56:22;5.97;;;4.53;;
8665;SDS011;4370;48.916;8.380;2023-01-28T14:15:36;6.93;;;4.90;;
8665;SDS011;4370;48.916;8.380;2023-01-28T14:18:20;6.40;;;4.87;;
8665;SDS011;4370;48.916;8.380;2023-01-28T14:20:52;5.57;;;4.70;;
8665;SDS011;4370;48.916;8.380;2023-01-28T14:23:19;5.33;;;4.77;;
8665;SDS011;4370;48.916;8.380;2023-01-28T14:25:50;6.80;;;4.90;;
8665;SDS011;4370;48.916;8.380;2023-01-28T14:28:43;6.80;;;4.47;;
8665;SDS011;4370;48.916;8.380;2023-01-28T14:31:13;5.73;;;4.67;;
8665;SDS011;4370;48.916;8.380;2023-01-28T14:33:44;4.87;;;3.87;;
8665;SDS011;4370;48.916;8.380;2023-01-28T14:36:11;4.93;;;4.40;;
8665;SDS011;4370;48.916;8.380;2023-01-28T14:38:38;6.33;;;4.70;;
8665;SDS011;4370;48.916;8.380;2023-01-28T14:41:06;5.53;;;4.60;;
8665;SDS011;4370;48.916;8.380;2023-01-28T14:43:32;5.67;;;4.90;;
8665;SDS011;4370;48.916;8.380;2023-01-28T14:49:09;5.30;;;4.13;;
8665;SDS011;4370;48.916;8.380;2023-01-28T14:55:16;6.63;;;4.70;;
8665;SDS011;4370;48.916;8.380;2023-01-28T14:57:55;6.50;;;5.00;;
8665;SDS011;4370;48.916;8.380;2023-01-28T15:00:25;6.07;;;4.83;;
8665;SDS011;4370;48.916;8.380;2023-01-28T15:02:52;5.37;;;4.30;;
8665;SDS011;4370;48.916;8.380;2023-01-28T15:07:44;5.33;;;4.30;;
8665;SDS011;4370;48.916;8.380;2023-01-28T15:10:18;5.47;;;3.93;;
8665;SDS011;4370;48.916;8.380;2023-01-28T15:13:02;5.77;;;4.10;;
8665;SDS011;4370;48.916;8.380;2023-01-28T15:15:34;5.07;;;4.13;;
8665;SDS011;4370;48.916;8.380;2023-01-28T15:20:36;8.07;;;4.13;;
8665;SDS011;4370;48.916;8.380;2023-01-28T15:23:02;5.53;;;4.33;;
8665;SDS011;4370;48.916;8.380;2023-01-28T15:25:30;5.20;;;4.50;;
8665;SDS011;4370;48.916;8.380;2023-01-28T15:27:58;5.83;;;4.47;;
8665;SDS011;4370;48.916;8.380;2023-01-28T15:30:26;6.77;;;4.20;;
8665;SDS011;4370;48.916;8.380;2023-01-28T15:33:01;5.30;;;4.10;;
8665;SDS011;4370;48.916;8.380;2023-01-28T15:35:27;5.10;;;4.10;;
8665;SDS011;4370;48.916;8.380;2023-01-28T15:37:53;6.20;;;4.57;;
8665;SDS011;4370;48.916;8.380;2023-01-28T15:40:20;5.97;;;4.53;;
8665;SDS011;4370;48.916;8.380;2023-01-28T15:42:47;7.10;;;4.80;;
8665;SDS011;4370;48.916;8.380;2023-01-28T15:45:15;6.13;;;4.57;;
8665;SDS011;4370;48.916;8.380;2023-01-28T15:47:41;7.03;;;4.90;;
8665;SDS011;4370;48.916;8.380;2023-01-28T15:50:07;6.93;;;4.87;;
8665;SDS011;4370;48.916;8.380;2023-01-28T15:52:42;5.93;;;4.63;;
8665;SDS011;4370;48.916;8.380;2023-01-28T15:58:07;5.33;;;4.20;;
8665;SDS011;4370;48.916;8.380;2023-01-28T16:00:36;6.07;;;4.20;;
8665;SDS011;4370;48.916;8.380;2023-01-28T16:03:07;6.87;;;4.37;;
8665;SDS011;4370;48.916;8.380;2023-01-28T16:05:35;5.63;;;5.00;;
8665;SDS011;4370;48.916;8.380;2023-01-28T16:08:02;5.40;;;4.37;;
8665;SDS011;4370;48.916;8.380;2023-01-28T16:10:33;6.07;;;4.83;;
8665;SDS011;4370;48.916;8.380;2023-01-28T16:15:49;5.77;;;4.40;;
8665;SDS011;4370;48.916;8.380;2023-01-28T16:18:19;5.80;;;4.23;;
8665;SDS011;4370;48.916;8.380;2023-01-28T16:20:48;6.17;;;4.93;;
8665;SDS011;4370;48.916;8.380;2023-01-28T16:23:19;5.20;;;4.37;;
8665;SDS011;4370;48.916;8.380;2023-01-28T16:25:46;5.33;;;3.97;;
8665;SDS011;4370;48.916;8.380;2023-01-28T16:28:23;6.13;;;4.43;;
8665;SDS011;4370;48.916;8.380;2023-01-28T16:30:49;7.20;;;4.47;;
8665;SDS011;4370;48.916;8.380;2023-01-28T16:33:18;7.03;;;4.23;;
8665;SDS011;4370;48.916;8.380;2023-01-28T16:35:44;5.40;;;4.37;;
8665;SDS011;4370;48.916;8.380;2023-01-28T16:38:10;6.33;;;4.70;;
8665;SDS011;4370;48.916;8.380;2023-01-28T16:40:40;6.23;;;4.37;;
8665;SDS011;4370;48.916;8.380;2023-01-28T16:43:10;5.50;;;4.20;;
8665;SDS011;4370;48.916;8.380;2023-01-28T16:45:37;5.10;;;4.37;;
8665;SDS011;4370;48.916;8.380;2023-01-28T16:48:02;7.43;;;4.23;;
8665;SDS011;4370;48.916;8.380;2023-01-28T16:50:28;5.73;;;3.70;;
8665;SDS011;4370;48.916;8.380;2023-01-28T16:52:56;6.67;;;4.33;;
8665;SDS011;4370;48.916;8.380;2023-01-28T16:55:22;6.50;;;4.33;;
8665;SDS011;4370;48.916;8.380;2023-01-28T16:57:49;5.90;;;4.67;;
8665;SDS011;4370;48.916;8.380;2023-01-28T17:02:50;5.63;;;4.33;;
8665;SDS011;4370;48.916;8.380;2023-01-28T17:05:16;5.50;;;4.30;;
8665;SDS011;4370;48.916;8.380;2023-01-28T17:07:43;5.30;;;4.00;;
8665;SDS011;4370;48.916;8.380;2023-01-28T17:10:12;6.20;;;4.40;;
8665;SDS011;4370;48.916;8.380;2023-01-28T17:12:38;6.30;;;4.27;;
8665;SDS011;4370;48.916;8.380;2023-01-28T17:15:05;7.73;;;4.50;;
8665;SDS011;4370;48.916;8.380;2023-01-28T17:17:31;6.93;;;4.37;;
8665;SDS011;4370;48.916;8.380;2023-01-28T17:19:57;5.40;;;4.27;;